| time (UTC) | temp C | wind direction | speed KPH | gust KPH | rain 1hr cm | rain 24hr cm | rain mn cm | humidity % | barometer mb |
| 20260906010738 | 11 | -1 | 4.8 | 8.0 | 0.00 | 0.00 | 0.00 | 6 | 1019.2 |
| 20260906010237 | 11 | -1 | 4.8 | 9.7 | 0.00 | 0.00 | 0.00 | 6 | 1019.2 |
| 20260906005736 | 11 | -1 | 6.4 | 11.3 | 0.00 | 0.00 | 0.00 | 6 | 1019.2 |
| 20260906005235 | 11 | -1 | 4.8 | 11.3 | 0.00 | 0.00 | 0.00 | 6 | 1019.3 |
| 20260906004734 | 11 | -1 | 4.8 | 8.0 | 0.00 | 0.00 | 0.00 | 6 | 1019.1 |
| 20260906004233 | 11 | -1 | 0.0 | 0.0 | 0.00 | 0.00 | 0.00 | 6 | 1019.1 |
| 20260906003732 | 12 | -1 | 0.0 | 3.2 | 0.00 | 0.00 | 0.00 | 6 | 1018.9 |
| 20260906003231 | 12 | -1 | 4.8 | 8.0 | 0.00 | 0.00 | 0.00 | 6 | 1019.0 |
| 20260906002730 | 12 | -1 | 0.0 | 3.2 | 0.00 | 0.00 | 0.00 | 6 | 1018.7 |
| 20260906002229 | 12 | -1 | 4.8 | 9.7 | 0.00 | 0.00 | 0.00 | 6 | 1018.8 |
| 20260906001728 | 12 | -1 | 6.4 | 9.7 | 0.00 | 0.00 | 0.00 | 6 | 1018.8 |
| 20260906001227 | 12 | -1 | 4.8 | 8.0 | 0.00 | 0.00 | 0.00 | 6 | 1018.8 |
| 20260906000726 | 12 | -1 | 4.8 | 9.7 | 0.00 | 0.00 | 0.00 | 6 | 1018.7 |
| 20260906000226 | 12 | -1 | 4.8 | 6.4 | 0.00 | 0.00 | 0.00 | 6 | 1018.6 |
| 20260905235724 | 12 | -1 | 0.0 | 0.0 | 0.00 | 0.00 | 0.15 | 6 | 1018.5 |
| 20260905235223 | 12 | -1 | 0.0 | 0.0 | 0.00 | 0.00 | 0.15 | 6 | 1018.4 |
| 20260905234722 | 12 | -1 | 4.8 | 6.4 | 0.00 | 0.00 | 0.15 | 6 | 1018.4 |
| 20260905234221 | 12 | -1 | 3.2 | 6.4 | 0.00 | 0.00 | 0.15 | 6 | 1018.4 |
| 20260905233719 | 12 | -1 | 3.2 | 6.4 | 0.00 | 0.00 | 0.15 | 6 | 1018.4 |
| 20260905233218 | 12 | -1 | 4.8 | 8.0 | 0.00 | 0.00 | 0.15 | 6 | 1018.4 |
| 20260905232717 | 12 | -1 | 6.4 | 9.7 | 0.00 | 0.00 | 0.15 | 6 | 1018.4 |
| 20260905232216 | 12 | -1 | 0.0 | 0.0 | 0.00 | 0.00 | 0.15 | 6 | 1018.3 |
| 20260905231715 | 12 | -1 | 0.0 | 4.8 | 0.00 | 0.00 | 0.15 | 6 | 1018.3 |
| 20260905231214 | 13 | -1 | 6.4 | 12.9 | 0.00 | 0.00 | 0.15 | 5 | 1018.2 |
| 20260905230713 | 13 | -1 | 0.0 | 0.0 | 0.00 | 0.00 | 0.15 | 5 | 1018.2 |
| 20260905230212 | 12 | -1 | 4.8 | 6.4 | 0.00 | 0.00 | 0.15 | 5 | 1018.1 |
| 20260905225711 | 12 | -1 | 4.8 | 9.7 | 0.00 | 0.00 | 0.15 | 5 | 1018.1 |
| 20260905225210 | 12 | -1 | 4.8 | 8.0 | 0.00 | 0.00 | 0.15 | 5 | 1018.1 |
| 20260905224709 | 13 | -1 | 4.8 | 6.4 | 0.00 | 0.00 | 0.15 | 5 | 1018.1 |
| 20260905224208 | 13 | -1 | 4.8 | 14.5 | 0.00 | 0.00 | 0.15 | 5 | 1018.1 |
| 20260905223707 | 13 | -1 | 4.8 | 12.9 | 0.00 | 0.00 | 0.15 | 5 | 1018.0 |
| 20260905223206 | 13 | -1 | 6.4 | 14.5 | 0.00 | 0.00 | 0.15 | 5 | 1018.0 |
| 20260905222705 | 13 | -1 | 4.8 | 8.0 | 0.00 | 0.00 | 0.15 | 5 | 1018.0 |
| 20260905222204 | 13 | -1 | 4.8 | 11.3 | 0.00 | 0.00 | 0.15 | 5 | 1018.0 |
| 20260905221703 | 13 | -1 | 4.8 | 14.5 | 0.00 | 0.00 | 0.15 | 5 | 1018.0 |
| 20260905221202 | 13 | -1 | 4.8 | 14.5 | 0.00 | 0.00 | 0.15 | 5 | 1017.9 |
| 20260905220701 | 13 | -1 | 6.4 | 17.7 | 0.00 | 0.00 | 0.15 | 5 | 1017.9 |
| 20260905220200 | 13 | -1 | 4.8 | 8.0 | 0.00 | 0.00 | 0.15 | 5 | 1017.9 |
| 20260905215659 | 13 | -1 | 6.4 | 11.3 | 0.00 | 0.00 | 0.15 | 5 | 1018.0 |
| 20260905215158 | 13 | -1 | 6.4 | 16.1 | 0.00 | 0.00 | 0.15 | 5 | 1018.0 |
| 20260905214657 | 13 | -1 | 4.8 | 8.0 | 0.00 | 0.00 | 0.15 | 5 | 1017.8 |
| 20260905214156 | 13 | -1 | 3.2 | 4.8 | 0.00 | 0.00 | 0.15 | 5 | 1017.8 |
| 20260905213655 | 13 | -1 | 0.0 | 3.2 | 0.00 | 0.00 | 0.15 | 5 | 1017.9 |
| 20260905213154 | 13 | -1 | 4.8 | 11.3 | 0.00 | 0.00 | 0.15 | 5 | 1017.9 |
| 20260905212653 | 13 | -1 | 4.8 | 11.3 | 0.00 | 0.00 | 0.15 | 5 | 1017.8 |
| 20260905212152 | 13 | -1 | 8.0 | 16.1 | 0.00 | 0.00 | 0.15 | 5 | 1017.8 |
| 20260905211651 | 13 | -1 | 4.8 | 9.7 | 0.00 | 0.00 | 0.15 | 5 | 1017.7 |
| 20260905211150 | 13 | -1 | 4.8 | 9.7 | 0.00 | 0.00 | 0.15 | 5 | 1017.7 |
| 20260905210649 | 13 | -1 | 6.4 | 12.9 | 0.00 | 0.00 | 0.15 | 5 | 1017.6 |
| 20260905210148 | 13 | -1 | 4.8 | 9.7 | 0.00 | 0.00 | 0.15 | 5 | 1017.6 |
| 20260905205647 | 13 | -1 | 6.4 | 14.5 | 0.00 | 0.00 | 0.15 | 5 | 1017.6 |
| 20260905205146 | 13 | -1 | 4.8 | 9.7 | 0.00 | 0.00 | 0.15 | 5 | 1017.5 |
| 20260905204645 | 13 | -1 | 6.4 | 17.7 | 0.00 | 0.00 | 0.15 | 5 | 1017.5 |
| 20260905204144 | 13 | -1 | 6.4 | 16.1 | 0.00 | 0.00 | 0.15 | 5 | 1017.4 |
| 20260905203642 | 13 | -1 | 8.0 | 17.7 | 0.00 | 0.00 | 0.15 | 5 | 1017.3 |
| 20260905203141 | 13 | -1 | 8.0 | 16.1 | 0.00 | 0.00 | 0.15 | 5 | 1017.3 |
| 20260905202640 | 13 | -1 | 8.0 | 14.5 | 0.00 | 0.00 | 0.15 | 5 | 1017.2 |
| 20260905202139 | 13 | -1 | 6.4 | 14.5 | 0.00 | 0.00 | 0.15 | 5 | 1017.1 |
| 20260905201638 | 13 | -1 | 6.4 | 16.1 | 0.00 | 0.00 | 0.15 | 5 | 1017.0 |
| 20260905201137 | 13 | -1 | 8.0 | 17.7 | 0.00 | 0.00 | 0.15 | 5 | 1016.8 |
| 20260905200636 | 14 | -1 | 6.4 | 14.5 | 0.00 | 0.00 | 0.15 | 5 | 1016.7 |
| 20260905200135 | 14 | -1 | 6.4 | 16.1 | 0.00 | 0.00 | 0.15 | 5 | 1016.6 |
| 20260905195634 | 14 | -1 | 6.4 | 17.7 | 0.00 | 0.00 | 0.15 | 5 | 1016.5 |
| 20260905195133 | 14 | -1 | 6.4 | 22.5 | 0.00 | 0.00 | 0.15 | 5 | 1016.5 |
| 20260905194632 | 14 | -1 | 6.4 | 12.9 | 0.00 | 0.00 | 0.15 | 5 | 1016.5 |
| 20260905194131 | 13 | -1 | 6.4 | 16.1 | 0.00 | 0.00 | 0.15 | 5 | 1016.5 |
| 20260905193630 | 13 | -1 | 8.0 | 22.5 | 0.00 | 0.00 | 0.15 | 5 | 1016.6 |
| 20260905193129 | 13 | -1 | 9.7 | 19.3 | 0.00 | 0.00 | 0.15 | 5 | 1016.6 |
| 20260905192628 | 13 | -1 | 11.3 | 22.5 | 0.00 | 0.00 | 0.15 | 5 | 1016.5 |
| 20260905192127 | 13 | -1 | 12.9 | 24.1 | 0.00 | 0.00 | 0.15 | 5 | 1016.4 |
| 20260905191626 | 13 | -1 | 11.3 | 20.9 | 0.00 | 0.00 | 0.15 | 5 | 1016.4 |
| 20260905191125 | 13 | -1 | 9.7 | 22.5 | 0.00 | 0.00 | 0.15 | 5 | 1016.3 |
| 20260905190624 | 13 | -1 | 9.7 | 22.5 | 0.00 | 0.00 | 0.15 | 5 | 1016.2 |
| 20260905190123 | 14 | -1 | 9.7 | 22.5 | 0.00 | 0.00 | 0.15 | 5 | 1016.2 |
| 20260905185622 | 13 | -1 | 9.7 | 17.7 | 0.00 | 0.00 | 0.15 | 5 | 1016.1 |
| 20260905185121 | 15 | -1 | 8.0 | 17.7 | 0.00 | 0.00 | 0.15 | 5 | 1016.0 |
| 20260905184619 | 14 | -1 | 9.7 | 19.3 | 0.00 | 0.00 | 0.15 | 5 | 1016.0 |
| 20260905184118 | 15 | -1 | 6.4 | 12.9 | 0.00 | 0.00 | 0.15 | 4 | 1015.8 |
| 20260905183617 | 15 | -1 | 8.0 | 17.7 | 0.00 | 0.00 | 0.15 | 4 | 1015.6 |
| 20260905183116 | 15 | -1 | 8.0 | 14.5 | 0.00 | 0.00 | 0.15 | 4 | 1015.6 |
| 20260905182615 | 15 | -1 | 8.0 | 16.1 | 0.00 | 0.00 | 0.15 | 4 | 1015.5 |
| 20260905182114 | 15 | -1 | 8.0 | 16.1 | 0.00 | 0.00 | 0.15 | 4 | 1015.5 |
| 20260905181613 | 15 | -1 | 6.4 | 12.9 | 0.00 | 0.00 | 0.15 | 5 | 1015.5 |
| 20260905181112 | 15 | -1 | 6.4 | 16.1 | 0.00 | 0.00 | 0.15 | 4 | 1015.2 |
| 20260905180611 | 15 | -1 | 6.4 | 16.1 | 0.00 | 0.00 | 0.15 | 4 | 1015.2 |
| 20260905180110 | 15 | -1 | 8.0 | 14.5 | 0.00 | 0.00 | 0.15 | 4 | 1015.2 |
| 20260905175609 | 15 | -1 | 6.4 | 14.5 | 0.00 | 0.00 | 0.15 | 4 | 1015.0 |
| 20260905175108 | 15 | -1 | 8.0 | 17.7 | 0.00 | 0.00 | 0.15 | 4 | 1015.0 |
| 20260905174607 | 15 | -1 | 8.0 | 17.7 | 0.00 | 0.00 | 0.15 | 4 | 1014.9 |
| 20260905174106 | 16 | -1 | 8.0 | 17.7 | 0.00 | 0.00 | 0.15 | 4 | 1014.7 |
| 20260905173605 | 16 | -1 | 12.9 | 32.2 | 0.00 | 0.00 | 0.15 | 4 | 1014.5 |
| 20260905173104 | 16 | -1 | 6.4 | 12.9 | 0.00 | 0.00 | 0.15 | 4 | 1014.3 |
| 20260905172603 | 17 | -1 | 8.0 | 22.5 | 0.00 | 0.00 | 0.15 | 4 | 1014.1 |
| 20260905172101 | 17 | -1 | 4.8 | 11.3 | 0.00 | 0.00 | 0.15 | 4 | 1013.9 |
| 20260905171600 | 17 | -1 | 8.0 | 14.5 | 0.00 | 0.00 | 0.15 | 4 | 1013.8 |
| 20260905171059 | 17 | -1 | 6.4 | 17.7 | 0.00 | 0.00 | 0.15 | 4 | 1013.8 |
| 20260905170558 | 17 | -1 | 6.4 | 19.3 | 0.00 | 0.00 | 0.15 | 4 | 1013.9 |
| 20260905170057 | 17 | -1 | 9.7 | 27.4 | 0.00 | 0.00 | 0.15 | 4 | 1013.7 |
| 20260905165556 | 17 | -1 | 9.7 | 19.3 | 0.00 | 0.00 | 0.15 | 4 | 1013.7 |
| 20260905165055 | 18 | -1 | 8.0 | 22.5 | 0.00 | 0.00 | 0.15 | 4 | 1013.4 |
| 20260905164554 | 18 | -1 | 9.7 | 24.1 | 0.00 | 0.00 | 0.15 | 3 | 1013.0 |
| 20260905164053 | 20 | -1 | 6.4 | 17.7 | 0.00 | 0.00 | 0.15 | 3 | 1012.6 |
| 20260905163552 | 19 | -1 | 9.7 | 25.7 | 0.00 | 0.00 | 0.15 | 3 | 1012.8 |
| 20260905163051 | 21 | -1 | 6.4 | 17.7 | 0.00 | 0.00 | 0.15 | 3 | 1012.1 |
| 20260905162550 | 22 | -1 | 6.4 | 11.3 | 0.00 | 0.00 | 0.15 | 3 | 1011.5 |
| 20260905162049 | 22 | -1 | 4.8 | 8.0 | 0.00 | 0.00 | 0.15 | 3 | 1011.6 |
| 20260905161548 | 22 | -1 | 4.8 | 9.7 | 0.00 | 0.00 | 0.15 | 3 | 1011.5 |
| 20260905161047 | 21 | -1 | 8.0 | 24.1 | 0.00 | 0.00 | 0.15 | 3 | 1011.6 |
| 20260905160546 | 23 | -1 | 6.4 | 16.1 | 0.00 | 0.00 | 0.15 | 3 | 1010.9 |
| 20260905160045 | 22 | -1 | 6.4 | 16.1 | 0.00 | 0.00 | 0.15 | 3 | 1011.3 |
| 20260905155544 | 22 | -1 | 8.0 | 29.0 | 0.00 | 0.00 | 0.15 | 3 | 1011.2 |
| 20260905155043 | 22 | -1 | 6.4 | 16.1 | 0.00 | 0.00 | 0.15 | 3 | 1011.3 |
| 20260905154542 | 22 | -1 | 4.8 | 9.7 | 0.00 | 0.00 | 0.15 | 3 | 1011.1 |
| 20260905154041 | 21 | -1 | 4.8 | 16.1 | 0.00 | 0.00 | 0.15 | 3 | 1011.2 |
| 20260905153540 | 20 | -1 | 6.4 | 25.7 | 0.00 | 0.00 | 0.15 | 3 | 1011.7 |
| 20260905153039 | 20 | -1 | 9.7 | 32.2 | 0.00 | 0.00 | 0.15 | 3 | 1011.8 |
| 20260905152538 | 20 | -1 | 9.7 | 33.8 | 0.00 | 0.00 | 0.15 | 3 | 1011.5 |
| 20260905152037 | 21 | -1 | 9.7 | 29.0 | 0.00 | 0.00 | 0.15 | 3 | 1011.4 |
| 20260905151536 | 20 | -1 | 9.7 | 29.0 | 0.00 | 0.00 | 0.15 | 3 | 1011.4 |
| 20260905151035 | 20 | -1 | 9.7 | 29.0 | 0.00 | 0.00 | 0.15 | 3 | 1011.4 |
| 20260905150534 | 20 | -1 | 9.7 | 29.0 | 0.00 | 0.00 | 0.15 | 3 | 1011.4 |
| 20260905150032 | 21 | -1 | 9.7 | 27.4 | 0.00 | 0.00 | 0.15 | 3 | 1011.1 |
| 20260905145531 | 23 | -1 | 8.0 | 25.7 | 0.00 | 0.00 | 0.15 | 3 | 1010.5 |
| 20260905145030 | 22 | -1 | 9.7 | 20.9 | 0.00 | 0.00 | 0.15 | 3 | 1010.8 |
| 20260905144529 | 21 | -1 | 16.1 | 48.3 | 0.00 | 0.00 | 0.15 | 3 | 1011.1 |
| 20260905144028 | 20 | -1 | 11.3 | 33.8 | 0.00 | 0.00 | 0.15 | 3 | 1011.4 |
| 20260905143527 | 19 | -1 | 8.0 | 20.9 | 0.00 | 0.00 | 0.15 | 3 | 1011.6 |
| 20260905143026 | 19 | -1 | 11.3 | 32.2 | 0.00 | 0.00 | 0.15 | 3 | 1011.6 |
| 20260905142525 | 18 | -1 | 16.1 | 40.2 | 0.00 | 0.00 | 0.15 | 4 | 1011.9 |
| 20260905142024 | 19 | -1 | 17.7 | 38.6 | 0.00 | 0.00 | 0.15 | 3 | 1011.6 |
| 20260905141523 | 19 | -1 | 17.7 | 38.6 | 0.00 | 0.00 | 0.15 | 3 | 1011.6 |
| 20260905141022 | 19 | -1 | 17.7 | 49.9 | 0.00 | 0.00 | 0.15 | 3 | 1011.6 |
| 20260905140521 | 20 | -1 | 14.5 | 29.0 | 0.00 | 0.00 | 0.15 | 3 | 1011.5 |
| 20260905140020 | 18 | -1 | 17.7 | 41.8 | 0.00 | 0.00 | 0.15 | 4 | 1011.9 |
| 20260905135519 | 20 | -1 | 14.5 | 37.0 | 0.00 | 0.00 | 0.15 | 3 | 1011.1 |
| 20260905135018 | 20 | -1 | 17.7 | 38.6 | 0.00 | 0.00 | 0.15 | 3 | 1011.2 |
| 20260905134517 | 20 | -1 | 12.9 | 29.0 | 0.00 | 0.00 | 0.15 | 3 | 1011.2 |
| 20260905134016 | 21 | -1 | 12.9 | 41.8 | 0.00 | 0.00 | 0.15 | 3 | 1011.0 |
| 20260905133515 | 20 | -1 | 16.1 | 38.6 | 0.00 | 0.00 | 0.15 | 3 | 1011.0 |
| 20260905133014 | 20 | -1 | 19.3 | 37.0 | 0.00 | 0.00 | 0.15 | 3 | 1011.0 |
| 20260905132513 | 20 | -1 | 16.1 | 40.2 | 0.00 | 0.00 | 0.15 | 3 | 1011.1 |
| 20260905132012 | 20 | -1 | 16.1 | 48.3 | 0.00 | 0.00 | 0.15 | 3 | 1011.0 |
| 20260905131511 | 20 | -1 | 17.7 | 45.1 | 0.00 | 0.00 | 0.15 | 3 | 1011.1 |
| 20260905131010 | 20 | -1 | 19.3 | 48.3 | 0.00 | 0.00 | 0.15 | 3 | 1011.0 |
| 20260905130509 | 20 | -1 | 16.1 | 43.5 | 0.00 | 0.00 | 0.15 | 3 | 1011.2 |
| 20260905130008 | 20 | -1 | 16.1 | 45.1 | 0.00 | 0.00 | 0.15 | 3 | 1011.2 |
| 20260905125507 | 20 | -1 | 16.1 | 45.1 | 0.00 | 0.00 | 0.15 | 3 | 1011.2 |
| 20260905125006 | 19 | -1 | 17.7 | 37.0 | 0.00 | 0.00 | 0.15 | 3 | 1011.4 |
| 20260905124505 | 19 | -1 | 19.3 | 43.5 | 0.00 | 0.00 | 0.15 | 3 | 1011.5 |
| 20260905124004 | 19 | -1 | 17.7 | 43.5 | 0.00 | 0.00 | 0.15 | 3 | 1011.5 |
| 20260905123503 | 20 | -1 | 12.9 | 35.4 | 0.00 | 0.00 | 0.15 | 4 | 1011.5 |
| 20260905123002 | 19 | -1 | 14.5 | 35.4 | 0.00 | 0.00 | 0.15 | 4 | 1011.6 |
| 20260905122501 | 20 | -1 | 11.3 | 32.2 | 0.00 | 0.00 | 0.15 | 3 | 1011.6 |
| 20260905122000 | 21 | -1 | 9.7 | 25.7 | 0.00 | 0.00 | 0.15 | 3 | 1011.0 |
| 20260905121458 | 20 | -1 | 16.1 | 35.4 | 0.00 | 0.00 | 0.15 | 4 | 1011.5 |
| 20260905120957 | 20 | -1 | 14.5 | 33.8 | 0.00 | 0.00 | 0.15 | 3 | 1011.3 |
| 20260905120456 | 20 | -1 | 14.5 | 41.8 | 0.00 | 0.00 | 0.15 | 4 | 1011.3 |
| 20260905115955 | 20 | -1 | 16.1 | 41.8 | 0.00 | 0.00 | 0.15 | 3 | 1011.4 |
| 20260905115454 | 19 | -1 | 22.5 | 45.1 | 0.00 | 0.00 | 0.15 | 4 | 1011.6 |
| 20260905114953 | 18 | -1 | 20.9 | 38.6 | 0.00 | 0.00 | 0.15 | 4 | 1011.7 |
| 20260905114452 | 18 | -1 | 19.3 | 40.2 | 0.00 | 0.00 | 0.15 | 4 | 1011.7 |
| 20260905113951 | 20 | -1 | 11.3 | 32.2 | 0.00 | 0.00 | 0.15 | 4 | 1011.3 |
| 20260905113450 | 20 | -1 | 12.9 | 30.6 | 0.00 | 0.00 | 0.15 | 3 | 1011.4 |
| 20260905112949 | 19 | -1 | 19.3 | 45.1 | 0.00 | 0.00 | 0.15 | 4 | 1011.7 |
| 20260905112448 | 19 | -1 | 12.9 | 53.1 | 0.00 | 0.00 | 0.15 | 3 | 1011.6 |
| 20260905111947 | 18 | -1 | 14.5 | 33.8 | 0.00 | 0.00 | 0.15 | 4 | 1011.9 |
| 20260905111446 | 17 | -1 | 16.1 | 38.6 | 0.00 | 0.00 | 0.15 | 4 | 1012.4 |
| 20260905110945 | 20 | -1 | 11.3 | 33.8 | 0.00 | 0.00 | 0.15 | 4 | 1011.5 |
| 20260905110444 | 18 | -1 | 11.3 | 29.0 | 0.00 | 0.00 | 0.15 | 4 | 1012.2 |
| 20260905105943 | 16 | -1 | 16.1 | 40.2 | 0.00 | 0.00 | 0.15 | 4 | 1012.7 |
| 20260905105442 | 16 | -1 | 17.7 | 41.8 | 0.00 | 0.00 | 0.15 | 4 | 1012.6 |
| 20260905104941 | 17 | -1 | 14.5 | 32.2 | 0.00 | 0.00 | 0.15 | 4 | 1012.5 |
| 20260905104440 | 16 | -1 | 11.3 | 29.0 | 0.00 | 0.00 | 0.15 | 4 | 1012.6 |
| 20260905103939 | 18 | -1 | 12.9 | 32.2 | 0.00 | 0.00 | 0.15 | 4 | 1012.1 |
| 20260905103437 | 18 | -1 | 14.5 | 32.2 | 0.00 | 0.00 | 0.15 | 4 | 1012.1 |
| 20260905102936 | 17 | -1 | 16.1 | 40.2 | 0.00 | 0.00 | 0.15 | 4 | 1012.3 |
| 20260905102435 | 18 | -1 | 17.7 | 38.6 | 0.00 | 0.00 | 0.15 | 4 | 1011.8 |
| 20260905101934 | 17 | -1 | 17.7 | 41.8 | 0.00 | 0.00 | 0.15 | 4 | 1012.3 |
| 20260905101433 | 17 | -1 | 17.7 | 37.0 | 0.00 | 0.00 | 0.15 | 4 | 1012.2 |
| 20260905100932 | 17 | -1 | 19.3 | 40.2 | 0.00 | 0.00 | 0.15 | 4 | 1012.5 |
| 20260905100431 | 17 | -1 | 20.9 | 37.0 | 0.00 | 0.00 | 0.15 | 4 | 1012.3 |
| 20260905095930 | 17 | -1 | 19.3 | 40.2 | 0.00 | 0.00 | 0.15 | 4 | 1012.2 |
| 20260905095429 | 17 | -1 | 19.3 | 43.5 | 0.00 | 0.00 | 0.15 | 4 | 1012.1 |
| 20260905094928 | 17 | -1 | 16.1 | 40.2 | 0.00 | 0.00 | 0.15 | 4 | 1012.1 |
| 20260905094427 | 17 | -1 | 14.5 | 40.2 | 0.00 | 0.00 | 0.15 | 4 | 1012.0 |
| 20260905093926 | 16 | -1 | 19.3 | 40.2 | 0.00 | 0.00 | 0.15 | 5 | 1012.4 |
| 20260905093425 | 17 | -1 | 16.1 | 37.0 | 0.00 | 0.00 | 0.15 | 5 | 1012.2 |
| 20260905092924 | 17 | -1 | 12.9 | 30.6 | 0.00 | 0.00 | 0.15 | 5 | 1012.1 |
| 20260905092423 | 16 | -1 | 16.1 | 33.8 | 0.00 | 0.00 | 0.15 | 5 | 1012.3 |
| 20260905091922 | 16 | -1 | 9.7 | 24.1 | 0.00 | 0.00 | 0.15 | 5 | 1012.3 |
| 20260905091421 | 15 | -1 | 19.3 | 38.6 | 0.00 | 0.00 | 0.15 | 5 | 1012.8 |
| 20260905090920 | 16 | -1 | 20.9 | 45.1 | 0.00 | 0.00 | 0.15 | 5 | 1012.5 |
| 20260905090419 | 16 | -1 | 22.5 | 49.9 | 0.00 | 0.00 | 0.15 | 5 | 1012.5 |
| 20260905085918 | 16 | -1 | 16.1 | 32.2 | 0.00 | 0.00 | 0.15 | 5 | 1012.4 |
| 20260905085417 | 16 | -1 | 17.7 | 41.8 | 0.00 | 0.00 | 0.15 | 5 | 1012.5 |
| 20260905084916 | 15 | -1 | 16.1 | 30.6 | 0.00 | 0.00 | 0.15 | 5 | 1012.8 |
| 20260905084415 | 16 | -1 | 17.7 | 37.0 | 0.00 | 0.00 | 0.15 | 5 | 1012.6 |
| 20260905083914 | 16 | -1 | 14.5 | 37.0 | 0.00 | 0.00 | 0.15 | 5 | 1012.5 |
| 20260905083413 | 16 | -1 | 16.1 | 33.8 | 0.00 | 0.00 | 0.15 | 5 | 1012.4 |
| 20260905082912 | 16 | -1 | 11.3 | 32.2 | 0.00 | 0.00 | 0.15 | 5 | 1012.6 |
| 20260905082411 | 15 | -1 | 14.5 | 35.4 | 0.00 | 0.00 | 0.15 | 6 | 1012.7 |
| 20260905081910 | 15 | -1 | 16.1 | 25.7 | 0.00 | 0.00 | 0.15 | 6 | 1012.8 |
| 20260905081409 | 15 | -1 | 14.5 | 38.6 | 0.00 | 0.00 | 0.15 | 5 | 1012.9 |
| 20260905080908 | 15 | -1 | 11.3 | 29.0 | 0.00 | 0.00 | 0.15 | 6 | 1012.8 |
| 20260905080407 | 15 | -1 | 16.1 | 30.6 | 0.00 | 0.00 | 0.15 | 6 | 1012.9 |
| 20260905075906 | 15 | -1 | 14.5 | 27.4 | 0.00 | 0.00 | 0.15 | 6 | 1012.9 |
| 20260905075405 | 15 | -1 | 14.5 | 32.2 | 0.00 | 0.00 | 0.15 | 5 | 1012.8 |
| 20260905074903 | 15 | -1 | 11.3 | 20.9 | 0.00 | 0.00 | 0.15 | 5 | 1012.5 |
| 20260905074402 | 15 | -1 | 12.9 | 30.6 | 0.00 | 0.00 | 0.15 | 6 | 1012.6 |
| 20260905073901 | 15 | -1 | 12.9 | 27.4 | 0.00 | 0.00 | 0.15 | 6 | 1012.5 |
| 20260905073400 | 14 | -1 | 12.9 | 27.4 | 0.00 | 0.00 | 0.15 | 6 | 1012.6 |
| 20260905072859 | 15 | -1 | 12.9 | 24.1 | 0.00 | 0.00 | 0.15 | 6 | 1012.6 |
| 20260905072358 | 14 | -1 | 11.3 | 27.4 | 0.00 | 0.00 | 0.15 | 6 | 1012.6 |
| 20260905071857 | 15 | -1 | 9.7 | 24.1 | 0.00 | 0.00 | 0.15 | 6 | 1012.3 |
| 20260905071356 | 15 | -1 | 6.4 | 12.9 | 0.00 | 0.00 | 0.15 | 6 | 1012.0 |
| 20260905070855 | 15 | -1 | 9.7 | 20.9 | 0.00 | 0.00 | 0.15 | 6 | 1012.0 |
| 20260905070354 | 14 | -1 | 9.7 | 19.3 | 0.00 | 0.00 | 0.15 | 6 | 1012.2 |
| 20260905065853 | 15 | -1 | 8.0 | 16.1 | 0.00 | 0.00 | 0.15 | 6 | 1012.1 |
| 20260905065352 | 13 | -1 | 9.7 | 19.3 | 0.00 | 0.00 | 0.15 | 7 | 1012.5 |
| 20260905064851 | 13 | -1 | 9.7 | 22.5 | 0.00 | 0.00 | 0.13 | 7 | 1012.6 |
| 20260905064350 | 14 | -1 | 8.0 | 16.1 | 0.00 | 0.00 | 0.13 | 6 | 1012.4 |
| 20260905063849 | 14 | -1 | 9.7 | 22.5 | 0.00 | 0.00 | 0.13 | 6 | 1012.4 |
| 20260905063348 | 14 | -1 | 6.4 | 11.3 | 0.00 | 0.00 | 0.13 | 6 | 1012.4 |
| 20260905062847 | 13 | -1 | 6.4 | 16.1 | 0.00 | 0.00 | 0.13 | 6 | 1012.4 |
| 20260905062346 | 13 | -1 | 6.4 | 14.5 | 0.00 | 0.00 | 0.13 | 7 | 1012.5 |
| 20260905061845 | 13 | 202 | 8.0 | 12.9 | 0.00 | 0.00 | 0.13 | 7 | 1012.7 |
| 20260905061344 | 12 | -1 | 8.0 | 16.1 | 0.00 | 0.00 | 0.13 | 7 | 1012.7 |
| 20260905060843 | 12 | -1 | 6.4 | 14.5 | 0.00 | 0.00 | 0.13 | 7 | 1012.7 |
| 20260905060342 | 12 | -1 | 8.0 | 12.9 | 0.00 | 0.00 | 0.13 | 7 | 1012.7 |
| 20260905055841 | 13 | -1 | 6.4 | 12.9 | 0.00 | 0.00 | 0.13 | 7 | 1012.5 |
| 20260905055340 | 13 | -1 | 6.4 | 12.9 | 0.00 | 0.00 | 0.13 | 7 | 1012.3 |
| 20260905054839 | 12 | -1 | 8.0 | 14.5 | 0.00 | 0.00 | 0.13 | 7 | 1012.2 |
| 20260905054338 | 12 | -1 | 8.0 | 16.1 | 0.00 | 0.00 | 0.13 | 7 | 1012.3 |
| 20260905053837 | 12 | 202 | 8.0 | 14.5 | 0.00 | 0.00 | 0.13 | 7 | 1012.2 |
| 20260905053336 | 12 | -1 | 8.0 | 14.5 | 0.00 | 0.00 | 0.13 | 7 | 1012.1 |
| 20260905052835 | 12 | -1 | 8.0 | 14.5 | 0.00 | 0.00 | 0.13 | 7 | 1012.1 |
| 20260905052334 | 12 | -1 | 8.0 | 20.9 | 0.00 | 0.00 | 0.13 | 7 | 1011.8 |
| 20260905051833 | 12 | -1 | 6.4 | 14.5 | 0.00 | 0.00 | 0.13 | 7 | 1011.8 |
| 20260905051332 | 11 | 270 | 9.7 | 17.7 | 0.00 | 0.00 | 0.13 | 8 | 1012.0 |
| 20260905050831 | 11 | 270 | 9.7 | 17.7 | 0.00 | 0.00 | 0.13 | 8 | 1012.1 |
| 20260905050330 | 10 | 270 | 8.0 | 16.1 | 0.00 | 0.00 | 0.13 | 8 | 1012.1 |
| 20260905045829 | 11 | 270 | 8.0 | 22.5 | 0.00 | 0.00 | 0.13 | 8 | 1011.9 |
| 20260905045328 | 11 | 292 | 8.0 | 17.7 | 0.00 | 0.00 | 0.13 | 8 | 1011.8 |
| 20260905044827 | 10 | 270 | 9.7 | 17.7 | 0.00 | 0.00 | 0.13 | 8 | 1011.9 |
| 20260905044326 | 10 | 270 | 12.9 | 30.6 | 0.00 | 0.00 | 0.13 | 8 | 1011.9 |
| 20260905043825 | 10 | 270 | 14.5 | 29.0 | 0.00 | 0.00 | 0.13 | 8 | 1011.9 |
| 20260905043323 | 10 | 315 | 12.9 | 29.0 | 0.00 | 0.00 | 0.13 | 8 | 1011.8 |
| 20260905042822 | 10 | 270 | 11.3 | 22.5 | 0.00 | 0.00 | 0.13 | 8 | 1011.8 |
| 20260905042321 | 10 | 315 | 9.7 | 20.9 | 0.00 | 0.00 | 0.13 | 8 | 1011.6 |
| 20260905041820 | 10 | 270 | 12.9 | 25.7 | 0.00 | 0.00 | 0.13 | 8 | 1011.8 |
| 20260905041319 | 10 | 292 | 12.9 | 25.7 | 0.00 | 0.00 | 0.13 | 8 | 1011.8 |
| 20260905040818 | 10 | 292 | 12.9 | 24.1 | 0.00 | 0.00 | 0.13 | 8 | 1011.3 |
| 20260905040317 | 11 | 270 | 12.9 | 25.7 | 0.00 | 0.00 | 0.13 | 8 | 1011.0 |
| 20260905035816 | 11 | 270 | 12.9 | 24.1 | 0.00 | 0.00 | 0.13 | 8 | 1010.9 |
| 20260905035315 | 11 | 315 | 12.9 | 24.1 | 0.00 | 0.00 | 0.13 | 8 | 1010.8 |
| 20260905034814 | 11 | 270 | 11.3 | 22.5 | 0.00 | 0.00 | 0.13 | 8 | 1010.7 |
| 20260905034313 | 11 | 247 | 9.7 | 22.5 | 0.00 | 0.00 | 0.13 | 8 | 1010.6 |
| 20260905033812 | 11 | 225 | 12.9 | 20.9 | 0.00 | 0.00 | 0.13 | 8 | 1010.3 |
| 20260905033311 | 11 | 247 | 9.7 | 22.5 | 0.00 | 0.00 | 0.13 | 8 | 1010.6 |
| 20260905032810 | 11 | 270 | 11.3 | 24.1 | 0.00 | 0.00 | 0.13 | 8 | 1011.2 |
| 20260905032309 | 11 | 292 | 12.9 | 25.7 | 0.00 | 0.00 | 0.13 | 8 | 1011.0 |
| 20260905031808 | 11 | 270 | 11.3 | 17.7 | 0.00 | 0.00 | 0.13 | 8 | 1010.9 |
| 20260905031307 | 11 | 225 | 9.7 | 17.7 | 0.00 | 0.00 | 0.13 | 8 | 1010.7 |
| 20260905030806 | 11 | 270 | 9.7 | 17.7 | 0.00 | 0.00 | 0.10 | 8 | 1011.1 |
| 20260905030305 | 11 | -1 | 8.0 | 17.7 | 0.00 | 0.00 | 0.08 | 8 | 1010.9 |
| 20260905025804 | 11 | -1 | 8.0 | 17.7 | 0.00 | 0.00 | 0.05 | 8 | 1011.2 |
| 20260905025306 | 11 | -1 | 8.0 | 14.5 | 0.00 | 0.00 | 0.05 | 7 | 1011.6 |
| 20260905024802 | 11 | -1 | 8.0 | 19.3 | 0.00 | 0.00 | 0.05 | 7 | 1011.4 |
| 20260905024301 | 11 | -1 | 9.7 | 20.9 | 0.00 | 0.00 | 0.05 | 7 | 1011.6 |
| 20260905023800 | 11 | -1 | 9.7 | 20.9 | 0.00 | 0.00 | 0.05 | 7 | 1011.2 |
| 20260905023259 | 11 | -1 | 11.3 | 22.5 | 0.00 | 0.00 | 0.03 | 7 | 1011.2 |
| 20260905022758 | 11 | -1 | 11.3 | 24.1 | 0.00 | 0.00 | 0.03 | 7 | 1011.1 |
| 20260905022257 | 11 | -1 | 14.5 | 25.7 | 0.00 | 0.00 | 0.03 | 7 | 1011.1 |
| 20260905021756 | 12 | -1 | 11.3 | 22.5 | 0.00 | 0.00 | 0.03 | 7 | 1010.7 |
| 20260905021255 | 12 | -1 | 9.7 | 19.3 | 0.00 | 0.00 | 0.03 | 7 | 1010.7 |
| 20260905020754 | 12 | -1 | 9.7 | 22.5 | 0.00 | 0.00 | 0.03 | 7 | 1011.0 |
| 20260905020253 | 12 | -1 | 11.3 | 20.9 | 0.00 | 0.00 | 0.03 | 7 | 1010.8 |
| 20260905015752 | 12 | -1 | 9.7 | 22.5 | 0.00 | 0.00 | 0.03 | 7 | 1010.7 |
| 20260905015251 | 12 | -1 | 8.0 | 17.7 | 0.00 | 0.00 | 0.00 | 7 | 1010.5 |
| 20260905014750 | 13 | -1 | 6.4 | 12.9 | 0.00 | 0.00 | 0.00 | 7 | 1010.2 |
| 20260905014249 | 13 | -1 | 6.4 | 14.5 | 0.00 | 0.00 | 0.00 | 6 | 1010.0 |
| 20260905013748 | 14 | -1 | 4.8 | 12.9 | 0.00 | 0.00 | 0.00 | 6 | 1009.8 |
| 20260905013247 | 13 | -1 | 4.8 | 6.4 | 0.00 | 0.00 | 0.00 | 6 | 1010.0 |
| 20260905012746 | 13 | -1 | 4.8 | 9.7 | 0.00 | 0.00 | 0.00 | 6 | 1009.8 |
| 20260905012245 | 12 | -1 | 9.7 | 20.9 | 0.00 | 0.00 | 0.00 | 6 | 1010.4 |
| 20260905011744 | 12 | -1 | 4.8 | 14.5 | 0.00 | 0.00 | 0.00 | 6 | 1010.3 |
| 20260905011243 | 12 | -1 | 6.4 | 14.5 | 0.00 | 0.00 | 0.00 | 6 | 1009.7 |